createdAt,value
2019-05-06T00:01:11.289Z,59.52
2019-05-06T00:03:38.445Z,59.45
2019-05-06T00:06:05.516Z,59.66
2019-05-06T00:08:34.568Z,59.44
2019-05-06T00:11:01.877Z,59.22
2019-05-06T00:13:29.388Z,58.96
2019-05-06T00:15:56.615Z,59.04
2019-05-06T00:18:24.528Z,59.26
2019-05-06T00:20:51.724Z,59.22
2019-05-06T00:23:24.995Z,59.08
2019-05-06T00:26:29.515Z,58.85
2019-05-06T00:28:59.793Z,58.78
2019-05-06T00:31:26.949Z,58.71
2019-05-06T00:33:54.396Z,58.81
2019-05-06T00:36:23.589Z,59.05
2019-05-06T00:38:53.986Z,58.73
2019-05-06T00:41:25.450Z,58.58
2019-05-06T00:43:54.585Z,58.74
2019-05-06T00:46:21.653Z,58.60
2019-05-06T00:48:48.825Z,58.69
2019-05-06T00:51:16.295Z,58.61
2019-05-06T00:53:47.246Z,58.73
2019-05-06T00:56:14.415Z,58.68
2019-05-06T00:58:43.310Z,58.66
2019-05-06T01:01:24.042Z,58.81
2019-05-06T01:03:40.040Z,58.66
2019-05-06T01:06:07.294Z,58.69
2019-05-06T01:08:35.023Z,58.61
2019-05-06T01:11:04.061Z,58.93
2019-05-06T01:13:43.793Z,59.08
2019-05-06T01:16:13.022Z,59.16
2019-05-06T01:18:40.156Z,59.30
2019-05-06T01:21:09.877Z,59.37
2019-05-06T01:23:39.816Z,59.39
2019-05-06T01:26:06.891Z,59.25
2019-05-06T01:28:34.193Z,59.32
2019-05-06T01:31:01.328Z,59.11
2019-05-06T01:33:28.496Z,58.86
2019-05-06T01:35:55.570Z,58.90
2019-05-06T01:38:30.509Z,58.75
2019-05-06T01:41:33.838Z,58.67
2019-05-06T01:44:01.507Z,58.59
2019-05-06T01:46:28.546Z,58.94
2019-05-06T01:48:56.239Z,59.05
2019-05-06T01:51:24.270Z,59.22
2019-05-06T01:53:51.494Z,59.19
2019-05-06T01:56:18.662Z,59.17
2019-05-06T01:58:46.190Z,59.17
2019-05-06T02:01:14.742Z,59.37
2019-05-06T02:03:44.161Z,59.59
2019-05-06T02:06:13.890Z,59.83
2019-05-06T02:08:40.911Z,59.71
2019-05-06T02:11:08.067Z,59.75
2019-05-06T02:13:35.265Z,59.93
2019-05-06T02:16:03.966Z,60.48
2019-05-06T02:18:31.189Z,60.65
2019-05-06T02:21:05.448Z,61.20
2019-05-06T02:23:35.930Z,61.95
2019-05-06T02:26:04.856Z,62.20
2019-05-06T02:28:34.355Z,62.83
2019-05-06T02:31:20.633Z,63.13
2019-05-06T02:34:10.108Z,63.75
2019-05-06T02:37:05.979Z,64.26
2019-05-06T02:39:34.138Z,65.07
2019-05-06T02:42:03.783Z,65.47
2019-05-06T02:44:33.371Z,65.71
2019-05-06T02:47:13.568Z,66.12
2019-05-06T02:49:53.481Z,66.51
2019-05-06T02:52:22.878Z,66.81
2019-05-06T02:54:50.026Z,67.12
2019-05-06T02:57:17.186Z,67.29
2019-05-06T02:59:44.404Z,67.57
2019-05-06T03:02:13.967Z,67.64
2019-05-06T03:04:43.482Z,68.10
2019-05-06T03:07:09.653Z,68.36
2019-05-06T03:09:36.815Z,68.56
2019-05-06T03:12:04.128Z,68.71
2019-05-06T03:14:34.221Z,68.98
2019-05-06T03:17:03.259Z,69.30
2019-05-06T03:19:30.654Z,69.75
2019-05-06T03:22:20.450Z,69.06
2019-05-06T03:24:54.480Z,69.26
2019-05-06T03:27:23.503Z,69.13
2019-05-06T03:29:53.461Z,69.17
2019-05-06T03:32:25.155Z,69.03
2019-05-06T03:35:08.970Z,69.27
2019-05-06T03:37:17.861Z,69.43
2019-05-06T03:39:45.068Z,69.76
2019-05-06T03:42:16.001Z,69.84
2019-05-06T03:44:43.956Z,70.44
2019-05-06T03:47:26.555Z,71.09
2019-05-06T03:49:54.794Z,71.08
2019-05-06T03:52:24.001Z,71.14
2019-05-06T03:54:53.674Z,71.16
2019-05-06T03:57:23.323Z,71.09
2019-05-06T03:59:52.907Z,71.27
2019-05-06T04:02:20.264Z,71.51
2019-05-06T04:04:47.671Z,71.61
2019-05-06T04:07:15.070Z,71.83
2019-05-06T04:09:44.241Z,71.61
2019-05-06T04:12:12.814Z,71.19
2019-05-06T04:14:43.107Z,70.81
2019-05-06T04:17:17.537Z,70.22
2019-05-06T04:19:48.828Z,69.42
2019-05-06T04:22:35.641Z,68.88
2019-05-06T04:25:14.407Z,68.50
2019-05-06T04:27:53.690Z,68.10
2019-05-06T04:30:24.069Z,67.82
2019-05-06T04:32:52.892Z,67.07
2019-05-06T04:35:19.284Z,66.69
2019-05-06T04:37:46.775Z,66.28
2019-05-06T04:40:14.025Z,65.66
2019-05-06T04:42:44.305Z,63.27
2019-05-06T04:45:16.651Z,57.47
2019-05-06T04:47:39.863Z,53.08
2019-05-06T04:50:07.798Z,47.29
2019-05-06T04:52:35.092Z,45.80
2019-05-06T04:55:03.359Z,45.90
2019-05-06T04:57:33.645Z,42.47
2019-05-06T05:00:00.027Z,38.43
2019-05-06T05:02:27.224Z,35.33
2019-05-06T05:04:54.588Z,32.36
2019-05-06T05:07:22.453Z,30.72
2019-05-06T05:09:53.856Z,29.27
2019-05-06T05:12:33.447Z,27.36
2019-05-06T05:15:08.898Z,25.76
2019-05-06T05:17:42.103Z,24.98
2019-05-06T05:20:10.033Z,24.54
2019-05-06T05:22:37.512Z,23.99
2019-05-06T05:25:04.848Z,22.55
2019-05-06T05:27:32.898Z,21.84
2019-05-06T05:30:01.941Z,20.53
2019-05-06T05:32:31.979Z,19.63
2019-05-06T05:34:58.716Z,18.94
2019-05-06T05:37:25.908Z,18.04
2019-05-06T05:39:53.157Z,17.26
2019-05-06T05:42:42.918Z,16.60
2019-05-06T05:45:12.840Z,16.22
2019-05-06T05:47:42.405Z,15.88
2019-05-06T05:50:26.930Z,16.15
2019-05-06T05:52:54.151Z,16.69
2019-05-06T05:55:21.943Z,17.09
2019-05-06T05:57:49.228Z,15.91
2019-05-06T06:00:17.258Z,14.69
2019-05-06T06:02:44.441Z,13.73
2019-05-06T06:05:12.423Z,13.23
2019-05-06T06:07:39.617Z,13.06
2019-05-06T06:10:15.468Z,12.43
2019-05-06T06:12:42.947Z,12.20
2019-05-06T06:15:19.452Z,11.39
2019-05-06T06:18:05.257Z,11.05
2019-05-06T06:21:17.938Z,10.85
2019-05-06T06:23:39.110Z,10.07
2019-05-06T06:26:06.581Z,9.65
2019-05-06T06:28:34.470Z,9.33
2019-05-06T06:31:17.028Z,9.33
2019-05-06T06:33:44.236Z,8.91
2019-05-06T06:36:24.515Z,8.65
2019-05-06T06:38:55.155Z,8.25
2019-05-06T06:41:22.905Z,8.44
2019-05-06T06:43:52.954Z,8.23
2019-05-06T06:46:22.306Z,7.87
2019-05-06T06:48:49.594Z,7.93
2019-05-06T06:51:16.764Z,8.12
2019-05-06T06:53:44.304Z,8.02
2019-05-06T06:56:36.729Z,7.91
2019-05-06T06:59:29.409Z,7.82
2019-05-06T07:02:19.572Z,7.26
2019-05-06T07:04:54.216Z,6.48
2019-05-06T07:07:22.945Z,6.54
2019-05-06T07:09:50.124Z,7.23
2019-05-06T07:12:17.393Z,6.21
2019-05-06T07:14:44.537Z,6.53
2019-05-06T07:17:13.340Z,6.68
2019-05-06T07:19:45.363Z,6.68
2019-05-06T07:22:12.847Z,9.41
2019-05-06T07:24:40.001Z,8.99
2019-05-06T07:27:13.136Z,7.81
2019-05-06T07:29:47.742Z,6.85
2019-05-06T07:32:09.461Z,6.03
2019-05-06T07:34:36.658Z,5.65
2019-05-06T07:37:03.857Z,5.66
2019-05-06T07:39:33.381Z,5.35
2019-05-06T07:42:02.458Z,5.40
2019-05-06T07:44:39.494Z,5.53
2019-05-06T07:47:15.584Z,7.05
2019-05-06T07:49:43.284Z,7.91
2019-05-06T07:52:12.368Z,7.36
2019-05-06T07:54:39.691Z,6.03
2019-05-06T07:57:06.756Z,5.90
2019-05-06T07:59:33.907Z,5.79
2019-05-06T08:02:02.260Z,6.51
2019-05-06T08:04:29.513Z,8.12
2019-05-06T08:06:56.678Z,9.64
2019-05-06T08:09:23.913Z,10.88
2019-05-06T08:11:52.988Z,10.83
2019-05-06T08:14:22.427Z,12.21
2019-05-06T08:17:02.485Z,15.05
2019-05-06T08:19:29.761Z,17.74
2019-05-06T08:21:58.858Z,21.31
2019-05-06T08:24:26.087Z,23.58
2019-05-06T08:26:53.245Z,25.41
2019-05-06T08:29:22.487Z,27.28
2019-05-06T08:31:52.200Z,28.14
2019-05-06T08:34:18.940Z,28.77
2019-05-06T08:37:04.179Z,28.10
2019-05-06T08:39:32.652Z,21.45
2019-05-06T08:41:59.966Z,16.17
2019-05-06T08:44:27.162Z,14.84
2019-05-06T08:46:54.349Z,14.37
2019-05-06T08:49:22.555Z,13.21
2019-05-06T08:52:02.407Z,13.10
2019-05-06T08:54:39.926Z,14.19
2019-05-06T08:57:07.186Z,16.31
2019-05-06T08:59:34.257Z,17.06
2019-05-06T09:02:03.133Z,16.41
2019-05-06T09:04:32.064Z,13.06
2019-05-06T09:06:59.429Z,10.27
2019-05-06T09:09:26.600Z,10.30
2019-05-06T09:11:53.895Z,9.50
2019-05-06T09:14:23.191Z,10.30
2019-05-06T09:16:53.543Z,12.07
2019-05-06T09:19:19.957Z,13.21
2019-05-06T09:21:47.121Z,14.39
2019-05-06T09:24:14.277Z,15.67
2019-05-06T09:26:55.122Z,17.32
2019-05-06T09:29:32.687Z,18.76
2019-05-06T09:32:03.499Z,19.28
2019-05-06T09:34:48.319Z,20.45
2019-05-06T09:37:17.396Z,23.16
2019-05-06T09:39:44.777Z,23.76
2019-05-06T09:42:12.945Z,24.28
2019-05-06T09:44:42.640Z,21.99
2019-05-06T09:47:13.440Z,18.73
2019-05-06T09:49:42.554Z,16.29
2019-05-06T09:52:12.818Z,17.94
2019-05-06T09:54:45.863Z,18.78
2019-05-06T09:57:22.123Z,19.66
2019-05-06T09:59:50.164Z,20.64
2019-05-06T10:02:17.378Z,20.67
2019-05-06T10:04:44.574Z,21.39
2019-05-06T10:07:12.200Z,20.51
2019-05-06T10:09:39.646Z,20.92
2019-05-06T10:12:06.867Z,21.14
2019-05-06T10:14:34.071Z,20.55
2019-05-06T10:17:04.389Z,20.12
2019-05-06T10:19:32.115Z,21.06
2019-05-06T10:21:59.406Z,21.21
2019-05-06T10:24:26.569Z,21.72
2019-05-06T10:26:56.899Z,20.93
2019-05-06T10:29:49.627Z,21.68
2019-05-06T10:32:32.793Z,21.75
2019-05-06T10:34:59.971Z,21.15
2019-05-06T10:37:42.222Z,21.46
2019-05-06T10:40:22.701Z,20.65
2019-05-06T10:42:57.485Z,20.78
2019-05-06T10:45:28.972Z,20.78
2019-05-06T10:47:56.250Z,20.92
2019-05-06T10:50:23.532Z,21.32
2019-05-06T10:53:08.997Z,20.99
2019-05-06T10:55:37.854Z,21.67
2019-05-06T10:58:05.060Z,22.48
2019-05-06T11:00:33.133Z,22.16
2019-05-06T11:03:22.436Z,21.54
2019-05-06T11:05:49.934Z,22.87
2019-05-06T11:08:17.092Z,21.96
2019-05-06T11:10:45.642Z,22.03
2019-05-06T11:13:13.270Z,21.54
2019-05-06T11:15:40.324Z,22.08
2019-05-06T11:18:07.781Z,21.71
2019-05-06T11:20:34.958Z,20.36
2019-05-06T11:23:02.275Z,20.04
2019-05-06T11:25:29.421Z,20.56
2019-05-06T11:27:56.607Z,21.37
2019-05-06T11:30:42.551Z,21.53
2019-05-06T11:33:22.368Z,21.82
2019-05-06T11:35:55.232Z,22.74
2019-05-06T11:38:22.855Z,21.96
2019-05-06T11:40:52.688Z,21.44
2019-05-06T11:43:19.306Z,21.17
2019-05-06T11:45:46.469Z,21.27
2019-05-06T11:48:14.681Z,21.04
2019-05-06T11:50:44.438Z,21.06
2019-05-06T11:53:12.515Z,20.87
2019-05-06T11:55:39.697Z,21.07
2019-05-06T11:58:26.512Z,21.40
2019-05-06T12:00:53.781Z,21.38
2019-05-06T12:03:22.902Z,20.88
2019-05-06T12:05:50.112Z,21.28
2019-05-06T12:08:17.302Z,21.00
2019-05-06T12:10:44.677Z,20.65
2019-05-06T12:13:12.296Z,19.61
2019-05-06T12:15:39.442Z,20.35
2019-05-06T12:18:06.505Z,21.07
2019-05-06T12:20:33.899Z,20.35
2019-05-06T12:23:04.282Z,19.90
2019-05-06T12:25:30.474Z,18.69
2019-05-06T12:27:57.900Z,19.40
2019-05-06T12:30:25.485Z,19.79
2019-05-06T12:33:13.033Z,20.23
2019-05-06T12:35:43.332Z,20.35
2019-05-06T12:38:26.489Z,18.73
2019-05-06T12:40:42.920Z,18.74
2019-05-06T12:43:28.771Z,19.09
2019-05-06T12:45:57.947Z,19.47
2019-05-06T12:48:33.165Z,20.02
2019-05-06T12:51:03.064Z,19.87
2019-05-06T12:53:32.610Z,19.96
2019-05-06T12:55:59.809Z,20.06
2019-05-06T12:58:26.980Z,20.16
2019-05-06T13:00:54.491Z,21.21
2019-05-06T13:03:23.453Z,21.03
2019-05-06T13:05:52.103Z,21.82
2019-05-06T13:08:21.075Z,21.94
2019-05-06T13:10:48.492Z,22.51
2019-05-06T13:13:15.937Z,22.30
2019-05-06T13:15:43.645Z,22.75
2019-05-06T13:18:10.753Z,22.50
2019-05-06T13:20:37.854Z,21.91
2019-05-06T13:23:20.739Z,21.73
2019-05-06T13:25:45.125Z,21.37
2019-05-06T13:28:12.936Z,21.53
2019-05-06T13:30:40.483Z,21.49
2019-05-06T13:33:14.276Z,21.71
2019-05-06T13:35:41.975Z,21.39
2019-05-06T13:38:09.514Z,21.67
2019-05-06T13:40:51.272Z,21.08
2019-05-06T13:43:43.813Z,22.07
2019-05-06T13:46:20.210Z,21.71
2019-05-06T13:49:10.110Z,22.58
2019-05-06T13:51:38.032Z,22.26
2019-05-06T13:54:05.351Z,22.41
2019-05-06T13:56:33.265Z,22.97
2019-05-06T13:59:00.742Z,23.13
2019-05-06T14:01:32.033Z,22.79
2019-05-06T14:03:59.107Z,22.99
2019-05-06T14:06:26.380Z,22.86
2019-05-06T14:08:53.577Z,23.38
2019-05-06T14:11:22.913Z,22.94
2019-05-06T14:13:49.847Z,22.53
2019-05-06T14:16:17.026Z,22.58
2019-05-06T14:18:44.248Z,22.76
2019-05-06T14:21:12.395Z,22.45
2019-05-06T14:23:39.874Z,22.67
2019-05-06T14:26:16.986Z,23.07
2019-05-06T14:29:02.819Z,23.62
2019-05-06T14:31:36.434Z,23.00
2019-05-06T14:34:03.712Z,23.21
2019-05-06T14:36:32.763Z,23.36
2019-05-06T14:39:04.714Z,24.00
2019-05-06T14:41:29.200Z,23.90
2019-05-06T14:43:56.298Z,24.53
2019-05-06T14:46:23.840Z,24.42
2019-05-06T14:48:53.360Z,24.90
2019-05-06T14:51:22.164Z,24.68
2019-05-06T14:53:49.253Z,25.29
2019-05-06T14:56:22.707Z,24.91
2019-05-06T14:59:08.294Z,24.96
2019-05-06T15:01:36.736Z,25.08
2019-05-06T15:04:04.340Z,25.81
2019-05-06T15:06:33.107Z,25.94
2019-05-06T15:09:03.726Z,26.32
2019-05-06T15:11:32.000Z,26.03
2019-05-06T15:13:59.259Z,26.00
2019-05-06T15:16:26.449Z,26.11
2019-05-06T15:18:53.621Z,26.42
2019-05-06T15:21:33.801Z,26.03
2019-05-06T15:23:50.007Z,25.95
2019-05-06T15:26:17.213Z,25.00
2019-05-06T15:28:45.014Z,25.19
2019-05-06T15:31:26.334Z,25.38
2019-05-06T15:33:54.788Z,25.61
2019-05-06T15:36:27.558Z,26.04
2019-05-06T15:38:54.760Z,26.07
2019-05-06T15:41:22.372Z,26.26
2019-05-06T15:43:49.623Z,26.49
2019-05-06T15:46:16.776Z,26.81
2019-05-06T15:48:44.057Z,27.30
2019-05-06T15:51:12.267Z,27.38
2019-05-06T15:53:39.510Z,28.43
2019-05-06T15:56:06.705Z,28.35
2019-05-06T15:58:34.201Z,29.29
2019-05-06T16:01:03.150Z,29.66
2019-05-06T16:03:32.807Z,30.12
2019-05-06T16:05:59.448Z,30.41
2019-05-06T16:08:26.636Z,30.55
2019-05-06T16:10:58.486Z,30.67
2019-05-06T16:13:22.959Z,30.26
2019-05-06T16:15:50.152Z,30.22
2019-05-06T16:18:17.824Z,30.41
2019-05-06T16:20:45.201Z,30.43
2019-05-06T16:23:32.736Z,30.17
2019-05-06T16:26:02.820Z,30.21
2019-05-06T16:28:30.045Z,30.31
2019-05-06T16:30:57.270Z,30.31
2019-05-06T16:33:24.461Z,30.61
2019-05-06T16:35:52.265Z,30.33
2019-05-06T16:38:19.643Z,30.60
2019-05-06T16:40:47.112Z,31.10
2019-05-06T16:43:14.323Z,31.63
2019-05-06T16:45:42.748Z,32.69
2019-05-06T16:48:10.299Z,32.51
2019-05-06T16:50:37.372Z,32.78
2019-05-06T16:53:04.717Z,33.12
2019-05-06T16:55:55.449Z,33.04
2019-05-06T16:58:24.571Z,33.08
2019-05-06T17:00:52.429Z,33.34
2019-05-06T17:03:25.578Z,33.67
2019-05-06T17:06:06.789Z,33.72
2019-05-06T17:08:36.501Z,33.64
2019-05-06T17:11:04.898Z,33.94
2019-05-06T17:13:34.043Z,34.23
2019-05-06T17:16:02.497Z,34.70
2019-05-06T17:18:29.890Z,34.87
2019-05-06T17:20:57.075Z,34.97
2019-05-06T17:23:24.284Z,35.38
2019-05-06T17:25:52.125Z,36.16
2019-05-06T17:28:26.448Z,36.21
2019-05-06T17:31:10.212Z,35.81
2019-05-06T17:33:42.869Z,36.43
2019-05-06T17:36:12.676Z,36.53
2019-05-06T17:38:45.562Z,36.89
2019-05-06T17:41:12.634Z,37.26
2019-05-06T17:43:41.026Z,37.45
2019-05-06T17:46:08.922Z,37.90
2019-05-06T17:48:42.586Z,38.11
2019-05-06T17:51:21.735Z,38.39
2019-05-06T17:53:52.664Z,38.82
2019-05-06T17:56:22.105Z,38.81
2019-05-06T17:58:49.306Z,39.09
2019-05-06T18:01:19.989Z,39.45
2019-05-06T18:03:47.143Z,39.38
2019-05-06T18:06:14.489Z,39.87
2019-05-06T18:08:43.274Z,40.17
2019-05-06T18:11:12.756Z,40.89
2019-05-06T18:13:39.762Z,40.91
2019-05-06T18:16:06.956Z,41.03
2019-05-06T18:18:34.112Z,41.15
2019-05-06T18:21:02.564Z,41.74
2019-05-06T18:23:29.688Z,42.10
2019-05-06T18:25:56.901Z,42.30
2019-05-06T18:28:24.013Z,42.62
2019-05-06T18:30:52.116Z,43.33
2019-05-06T18:33:19.635Z,42.41
2019-05-06T18:35:46.749Z,42.89
2019-05-06T18:38:13.920Z,43.06
2019-05-06T18:40:42.373Z,43.06
2019-05-06T18:43:09.982Z,43.28
2019-05-06T18:45:37.160Z,43.92
2019-05-06T18:48:04.221Z,43.68
2019-05-06T18:50:32.009Z,43.83
2019-05-06T18:52:59.332Z,44.13
2019-05-06T18:55:26.492Z,44.07
2019-05-06T18:57:53.729Z,44.64
2019-05-06T19:00:22.453Z,44.45
2019-05-06T19:02:52.055Z,44.63
2019-05-06T19:05:29.406Z,44.42
2019-05-06T19:07:56.862Z,44.13
2019-05-06T19:10:26.795Z,43.93
2019-05-06T19:12:54.473Z,44.66
2019-05-06T19:15:22.032Z,44.99
2019-05-06T19:17:49.274Z,45.57
2019-05-06T19:20:16.697Z,46.17
2019-05-06T19:22:43.914Z,46.60
2019-05-06T19:25:14.345Z,47.26
2019-05-06T19:27:42.019Z,47.80
2019-05-06T19:30:09.687Z,47.75
2019-05-06T19:32:36.854Z,47.54
2019-05-06T19:35:04.311Z,47.94
2019-05-06T19:37:32.843Z,48.15
2019-05-06T19:40:02.682Z,48.52
2019-05-06T19:42:43.688Z,48.69
2019-05-06T19:44:58.836Z,49.11
2019-05-06T19:47:26.353Z,48.68
2019-05-06T19:49:53.587Z,48.78
2019-05-06T19:52:20.818Z,48.70
2019-05-06T19:54:51.929Z,47.83
2019-05-06T19:57:18.848Z,47.09
2019-05-06T19:59:46.262Z,47.49
2019-05-06T20:02:13.812Z,47.68
2019-05-06T20:04:44.467Z,47.46
2019-05-06T20:07:22.882Z,47.12
2019-05-06T20:10:12.718Z,47.16
2019-05-06T20:12:58.474Z,47.73
2019-05-06T20:15:34.001Z,47.65
2019-05-06T20:18:03.038Z,48.60
2019-05-06T20:20:34.603Z,48.07
2019-05-06T20:22:59.442Z,48.43
2019-05-06T20:25:26.670Z,49.20
2019-05-06T20:27:53.921Z,49.55
2019-05-06T20:30:21.903Z,49.92
2019-05-06T20:32:49.202Z,50.59
2019-05-06T20:35:16.360Z,50.77
2019-05-06T20:37:43.931Z,51.08
2019-05-06T20:40:14.507Z,51.08
2019-05-06T20:42:42.635Z,51.12
2019-05-06T20:45:10.040Z,51.74
2019-05-06T20:47:38.096Z,52.04
2019-05-06T20:50:06.756Z,51.91
2019-05-06T20:52:33.960Z,51.98
2019-05-06T20:55:02.890Z,51.41
2019-05-06T20:57:30.256Z,51.43
2019-05-06T20:59:57.486Z,51.01
2019-05-06T21:02:25.878Z,51.16
2019-05-06T21:04:53.020Z,50.38
2019-05-06T21:07:20.217Z,49.97
2019-05-06T21:09:47.298Z,49.75
2019-05-06T21:12:14.454Z,49.45
2019-05-06T21:14:42.229Z,49.01
2019-05-06T21:17:09.435Z,48.99
2019-05-06T21:19:36.592Z,48.94
2019-05-06T21:22:03.814Z,49.40
2019-05-06T21:24:32.540Z,49.71
2019-05-06T21:27:02.644Z,49.76
2019-05-06T21:29:29.532Z,50.08
2019-05-06T21:31:56.697Z,49.84
2019-05-06T21:34:23.861Z,49.87
2019-05-06T21:36:53.097Z,49.92
2019-05-06T21:39:22.251Z,50.11
2019-05-06T21:41:49.407Z,50.20
2019-05-06T21:44:16.887Z,50.21
2019-05-06T21:46:43.929Z,50.52
2019-05-06T21:49:12.152Z,50.67
2019-05-06T21:51:39.457Z,50.69
2019-05-06T21:54:06.839Z,50.83
2019-05-06T21:56:33.990Z,50.88
2019-05-06T21:59:02.012Z,51.13
2019-05-06T22:01:29.454Z,51.63
2019-05-06T22:03:56.615Z,51.49
2019-05-06T22:06:23.799Z,51.74
2019-05-06T22:08:51.890Z,51.87
2019-05-06T22:11:19.149Z,52.11
2019-05-06T22:13:57.935Z,52.56
2019-05-06T22:16:15.442Z,52.63
2019-05-06T22:18:43.315Z,52.94
2019-05-06T22:21:22.518Z,53.04
2019-05-06T22:23:54.393Z,53.47
2019-05-06T22:26:23.130Z,53.44
2019-05-06T22:28:52.443Z,53.70
2019-05-06T22:31:22.217Z,53.77
2019-05-06T22:33:48.788Z,53.63
2019-05-06T22:36:16.735Z,53.75
2019-05-06T22:38:44.316Z,53.86
2019-05-06T22:41:11.626Z,54.05
2019-05-06T22:43:38.785Z,54.34
2019-05-06T22:46:05.968Z,54.63
2019-05-06T22:48:33.130Z,54.63
2019-05-06T22:51:02.553Z,54.68
2019-05-06T22:53:29.526Z,54.81
2019-05-06T22:55:59.027Z,54.85
2019-05-06T22:58:26.272Z,55.06
2019-05-06T23:00:54.172Z,55.08
2019-05-06T23:03:22.868Z,55.10
2019-05-06T23:05:50.032Z,55.62
2019-05-06T23:08:17.175Z,55.87
2019-05-06T23:10:44.676Z,55.92
2019-05-06T23:13:12.538Z,55.82
2019-05-06T23:15:41.903Z,55.70
2019-05-06T23:18:09.199Z,56.02
2019-05-06T23:20:36.362Z,55.90
2019-05-06T23:23:04.935Z,55.86
2019-05-06T23:25:32.681Z,55.62
2019-05-06T23:27:59.898Z,56.02
2019-05-06T23:30:27.095Z,56.18
2019-05-06T23:32:54.241Z,56.48
2019-05-06T23:35:22.024Z,55.83
2019-05-06T23:38:25.680Z,55.83
2019-05-06T23:41:29.079Z,55.94
2019-05-06T23:44:45.425Z,56.18
2019-05-06T23:47:38.676Z,56.31
2019-05-06T23:50:42.883Z,56.30
2019-05-06T23:53:46.498Z,56.26
2019-05-06T23:56:43.506Z,56.30
2019-05-06T23:59:12.470Z,56.42
